PWSweather.com
Personal Weather Stations
Station Observations
SOUTHARDNJ
Southard, Howell, NJ 07731

SouthardHowell, NJ 07731

Lat: 40.13020859666565, Lon: -74.21449720859528

Elevation: 112

Station Type: Davis VP2 Plus

Latest ConditionsUpdated 2:58:07 PM EST Saturday, Jan 25, 2020
Currently Today's Max Today's Min Today's Average
Temperature 52.4°F11.3°C 52.4°F11.3°C 40.2°F4.6°C 44.4°F6.9°C
Dew Point 51.3°F10.7°C 51.3°F10.7°C 38.3°F3.5°C 42.6°F5.9°C
Winds 1.1 mph SSW1.8 kmh SSW 10.3 mph -16.6 kmh - - 5.9 mph 9.5 kmh
Wind Gusts 3.4 mph5.5 kmh 26.4 mph42.5 kmh - -
Humidity 96% 97% 90% 93%
Pressure 29.75 in1007.5 mb 30.22 in1023.4 mb 29.74 in1007.1 mb -
Precipitation - 1.05 in26.7 mm - -
Hour Temp Dew Point Humidity Winds Wind Gusts Pressure Precip Precip Rate Daily Precip Total
02:58 PM 52.4°F11.3°C 51.3°F10.7°C 96% 1.1 mph SSW1.8 kmh SSW 3.4 mph5.5 kmh 29.75 in1007.5 mb - 1.05 in26.7 mm 1.05 in26.7 mm
02:52 PM 52.3°F11.3°C 51.2°F10.7°C 96% Calm Calm 1.1 mph1.8 kmh 29.74 in1007.1 mb - 1.05 in26.7 mm 1.05 in26.7 mm
02:46 PM 52.2°F11.2°C 51.1°F10.6°C 96% 2.3 mph S3.7 kmh S 5.8 mph9.3 kmh 29.74 in1007.1 mb - 1.05 in26.7 mm 1.05 in26.7 mm
02:41 PM 52.1°F11.2°C 51.0°F10.6°C 96% 2.3 mph S3.7 kmh S 2.3 mph3.7 kmh 29.75 in1007.5 mb - 1.04 in26.4 mm 1.04 in26.4 mm
12:48 PM 50.7°F10.4°C 49.9°F9.9°C 97% 6.9 mph SSE11.1 kmh SSE 10.3 mph16.6 kmh 29.78 in1008.5 mb - 0.58 in14.7 mm 0.58 in14.7 mm
12:43 PM 50.5°F10.3°C 49.5°F9.7°C 96% 6.9 mph S11.1 kmh S 19.5 mph31.4 kmh 29.79 in1008.8 mb - 0.57 in14.5 mm 0.57 in14.5 mm
12:37 PM 50.4°F10.2°C 49.3°F9.6°C 96% 5.8 mph S9.3 kmh S 11.5 mph18.5 kmh 29.79 in1008.8 mb - 0.57 in14.5 mm 0.57 in14.5 mm
12:31 PM 49.7°F9.8°C 48.6°F9.2°C 96% 8.0 mph SSE12.9 kmh SSE 19.5 mph31.4 kmh 29.80 in1009.1 mb - 0.54 in13.7 mm 0.54 in13.7 mm
12:26 PM 49.7°F9.8°C 48.6°F9.2°C 96% 6.9 mph SSE11.1 kmh SSE 13.8 mph22.2 kmh 29.80 in1009.1 mb - 0.54 in13.7 mm 0.54 in13.7 mm
12:20 PM 49.3°F9.6°C 48.2°F9.0°C 96% 8.0 mph SSE12.9 kmh SSE 14.9 mph24.0 kmh 29.81 in1009.5 mb - 0.51 in13.0 mm 0.51 in13.0 mm
12:15 PM 49.1°F9.5°C 48.1°F8.9°C 96% 9.2 mph S14.8 kmh S 17.3 mph27.8 kmh 29.81 in1009.5 mb - 0.49 in12.4 mm 0.49 in12.4 mm
12:09 PM 49.1°F9.5°C 48.0°F8.9°C 96% 10.3 mph S16.6 kmh S 18.4 mph29.6 kmh 29.81 in1009.5 mb - 0.48 in12.2 mm 0.48 in12.2 mm
12:03 PM 49.0°F9.4°C 47.9°F8.8°C 96% 8.0 mph SSE12.9 kmh SSE 14.9 mph24.0 kmh 29.82 in1009.8 mb - 0.46 in11.7 mm 0.46 in11.7 mm
11:58 AM 49.1°F9.5°C 48.0°F8.9°C 96% 9.2 mph SSE14.8 kmh SSE 11.5 mph18.5 kmh 29.82 in1009.8 mb - 0.43 in10.9 mm 0.43 in10.9 mm
11:52 AM 49.1°F9.5°C 48.0°F8.9°C 96% 8.0 mph SSE12.9 kmh SSE 26.4 mph42.5 kmh 29.82 in1009.8 mb - 0.42 in10.7 mm 0.42 in10.7 mm
11:46 AM 49.0°F9.4°C 47.9°F8.8°C 96% 9.2 mph SSE14.8 kmh SSE 11.5 mph18.5 kmh 29.84 in1010.5 mb - 0.40 in10.2 mm 0.40 in10.2 mm
11:41 AM 49.0°F9.4°C 47.9°F8.8°C 96% 10.3 mph SSE16.6 kmh SSE 20.7 mph33.3 kmh 29.84 in1010.5 mb - 0.40 in10.2 mm 0.40 in10.2 mm
11:35 AM 48.7°F9.3°C 47.6°F8.7°C 96% 8.0 mph SE12.9 kmh SE 13.8 mph22.2 kmh 29.84 in1010.5 mb - 0.36 in9.1 mm 0.36 in9.1 mm
11:30 AM 48.6°F9.2°C 47.5°F8.6°C 96% 8.0 mph SSE12.9 kmh SSE 13.8 mph22.2 kmh 29.84 in1010.5 mb - 0.36 in9.1 mm 0.36 in9.1 mm
11:24 AM 48.2°F9.0°C 47.1°F8.4°C 96% 6.9 mph SE11.1 kmh SE 16.1 mph25.9 kmh 29.84 in1010.5 mb - 0.31 in7.9 mm 0.31 in7.9 mm
11:18 AM 48.0°F8.9°C 46.9°F8.3°C 96% 8.0 mph SE12.9 kmh SE 11.5 mph18.5 kmh 29.84 in1010.5 mb - 0.28 in7.1 mm 0.28 in7.1 mm
11:13 AM 47.6°F8.7°C 46.5°F8.1°C 96% 5.8 mph ESE9.3 kmh ESE 14.9 mph24.0 kmh 29.87 in1011.5 mb - 0.24 in6.1 mm 0.24 in6.1 mm
11:07 AM 47.6°F8.7°C 46.5°F8.1°C 96% 5.8 mph SE9.3 kmh SE 11.5 mph18.5 kmh 29.88 in1011.9 mb - 0.23 in5.8 mm 0.23 in5.8 mm
11:01 AM 47.2°F8.4°C 46.2°F7.9°C 96% 6.9 mph SE11.1 kmh SE 11.5 mph18.5 kmh 29.90 in1012.5 mb - 0.19 in4.8 mm 0.19 in4.8 mm
10:56 AM 47.2°F8.4°C 46.1°F7.8°C 96% 8.0 mph SE12.9 kmh SE 13.8 mph22.2 kmh 29.90 in1012.5 mb - 0.19 in4.8 mm 0.19 in4.8 mm
10:50 AM 46.9°F8.3°C 45.8°F7.7°C 96% 8.0 mph SE12.9 kmh SE 17.3 mph27.8 kmh 29.90 in1012.5 mb - 0.17 in4.3 mm 0.17 in4.3 mm
10:45 AM 46.8°F8.2°C 45.7°F7.6°C 96% 6.9 mph SE11.1 kmh SE 16.1 mph25.9 kmh 29.91 in1012.9 mb - 0.17 in4.3 mm 0.17 in4.3 mm
10:39 AM 46.5°F8.1°C 45.5°F7.5°C 96% 6.9 mph SE11.1 kmh SE 14.9 mph24.0 kmh 29.92 in1013.2 mb - 0.12 in3.0 mm 0.12 in3.0 mm
10:33 AM 46.5°F8.1°C 45.4°F7.4°C 96% 5.8 mph SE9.3 kmh SE 13.8 mph22.2 kmh 29.92 in1013.2 mb - 0.12 in3.0 mm 0.12 in3.0 mm
10:28 AM 46.4°F8.0°C 45.3°F7.4°C 96% 5.8 mph SE9.3 kmh SE 10.3 mph16.6 kmh 29.93 in1013.5 mb - 0.12 in3.0 mm 0.12 in3.0 mm
10:22 AM 46.2°F7.9°C 45.2°F7.3°C 96% 6.9 mph SE11.1 kmh SE 11.5 mph18.5 kmh 29.94 in1013.9 mb - 0.12 in3.0 mm 0.12 in3.0 mm
10:16 AM 46.0°F7.8°C 45.0°F7.2°C 96% 8.0 mph SE12.9 kmh SE 13.8 mph22.2 kmh 29.95 in1014.2 mb - 0.11 in2.8 mm 0.11 in2.8 mm
10:11 AM 46.0°F7.8°C 44.9°F7.2°C 96% 6.9 mph SE11.1 kmh SE 11.5 mph18.5 kmh 29.95 in1014.2 mb - 0.11 in2.8 mm 0.11 in2.8 mm
10:05 AM 45.7°F7.6°C 44.6°F7.0°C 96% 5.8 mph SE9.3 kmh SE 13.8 mph22.2 kmh 29.95 in1014.2 mb - 0.11 in2.8 mm 0.11 in2.8 mm
10:00 AM 45.7°F7.6°C 44.6°F7.0°C 96% 5.8 mph SE9.3 kmh SE 13.8 mph22.2 kmh 29.95 in1014.2 mb - 0.11 in2.8 mm 0.11 in2.8 mm
09:54 AM 45.4°F7.4°C 44.4°F6.9°C 96% 6.9 mph SE11.1 kmh SE 11.5 mph18.5 kmh 29.96 in1014.6 mb - 0.10 in2.5 mm 0.10 in2.5 mm
09:48 AM 45.4°F7.4°C 44.3°F6.8°C 96% 6.9 mph SE11.1 kmh SE 11.5 mph18.5 kmh 29.96 in1014.6 mb - 0.10 in2.5 mm 0.10 in2.5 mm
09:43 AM 45.3°F7.4°C 43.9°F6.6°C 95% 9.2 mph SE14.8 kmh SE 11.5 mph18.5 kmh 29.96 in1014.6 mb - 0.10 in2.5 mm 0.10 in2.5 mm
09:37 AM 45.2°F7.3°C 43.9°F6.6°C 95% 8.0 mph SE12.9 kmh SE 19.5 mph31.4 kmh 29.97 in1014.9 mb - 0.09 in2.3 mm 0.09 in2.3 mm
09:31 AM 45.2°F7.3°C 43.9°F6.6°C 95% 5.8 mph SE9.3 kmh SE 10.3 mph16.6 kmh 29.98 in1015.2 mb - 0.08 in2.0 mm 0.08 in2.0 mm
09:26 AM 45.2°F7.3°C 43.9°F6.6°C 95% 9.2 mph SE14.8 kmh SE 14.9 mph24.0 kmh 29.98 in1015.2 mb - 0.06 in1.5 mm 0.06 in1.5 mm
09:20 AM 45.1°F7.3°C 43.7°F6.5°C 95% 5.8 mph SE9.3 kmh SE 10.3 mph16.6 kmh 29.98 in1015.2 mb - 0.03 in0.8 mm 0.03 in0.8 mm
09:15 AM 45.0°F7.2°C 44.0°F6.7°C 96% 6.9 mph ESE11.1 kmh ESE 17.3 mph27.8 kmh 29.99 in1015.6 mb - 0.01 in0.3 mm 0.01 in0.3 mm
09:09 AM 44.9°F7.2°C 43.6°F6.4°C 95% 6.9 mph SE11.1 kmh SE 10.3 mph16.6 kmh 29.99 in1015.6 mb - 0.01 in0.3 mm 0.01 in0.3 mm
09:03 AM 44.9°F7.2°C 43.6°F6.4°C 95% 5.8 mph SE9.3 kmh SE 9.2 mph14.8 kmh 30.00 in1015.9 mb - 0.01 in0.3 mm 0.01 in0.3 mm
08:58 AM 44.8°F7.1°C 43.5°F6.4°C 95% 5.8 mph SE9.3 kmh SE 9.2 mph14.8 kmh 30.01 in1016.3 mb - 0.00 in0.0 mm 0.00 in0.0 mm
08:52 AM 44.7°F7.1°C 43.4°F6.3°C 95% 8.0 mph SE12.9 kmh SE 14.9 mph24.0 kmh 30.01 in1016.3 mb - 0.00 in0.0 mm 0.00 in0.0 mm
08:46 AM 44.6°F7.0°C 43.3°F6.3°C 95% 6.9 mph ESE11.1 kmh ESE 11.5 mph18.5 kmh 30.02 in1016.6 mb - 0.00 in0.0 mm 0.00 in0.0 mm
08:41 AM 44.6°F7.0°C 43.2°F6.2°C 95% 6.9 mph SE11.1 kmh SE 11.5 mph18.5 kmh 30.03 in1016.9 mb - 0.00 in0.0 mm 0.00 in0.0 mm
08:35 AM 44.4°F6.9°C 43.1°F6.2°C 95% 9.2 mph SE14.8 kmh SE 14.9 mph24.0 kmh 30.03 in1016.9 mb - 0.00 in0.0 mm 0.00 in0.0 mm
08:30 AM 44.4°F6.9°C 43.0°F6.1°C 95% 5.8 mph SE9.3 kmh SE 10.3 mph16.6 kmh 30.03 in1016.9 mb - 0.00 in0.0 mm 0.00 in0.0 mm
08:24 AM 44.3°F6.8°C 43.0°F6.1°C 95% 4.6 mph ESE7.4 kmh ESE 9.2 mph14.8 kmh 30.04 in1017.3 mb - 0.00 in0.0 mm 0.00 in0.0 mm
08:18 AM 44.3°F6.8°C 42.9°F6.1°C 95% 4.6 mph ESE7.4 kmh ESE 9.2 mph14.8 kmh 30.04 in1017.3 mb - 0.00 in0.0 mm 0.00 in0.0 mm
08:13 AM 44.2°F6.8°C 42.8°F6.0°C 95% 5.8 mph ESE9.3 kmh ESE 11.5 mph18.5 kmh 30.04 in1017.3 mb - 0.00 in0.0 mm 0.00 in0.0 mm
08:07 AM 44.1°F6.7°C 42.8°F6.0°C 95% 4.6 mph SE7.4 kmh SE 9.2 mph14.8 kmh 30.05 in1017.6 mb - 0.00 in0.0 mm 0.00 in0.0 mm
08:01 AM 44.1°F6.7°C 42.8°F6.0°C 95% 5.8 mph ESE9.3 kmh ESE 11.5 mph18.5 kmh 30.04 in1017.3 mb - 0.00 in0.0 mm 0.00 in0.0 mm
07:56 AM 44.1°F6.7°C 42.8°F6.0°C 95% 5.8 mph SE9.3 kmh SE 11.5 mph18.5 kmh 30.04 in1017.3 mb - 0.00 in0.0 mm 0.00 in0.0 mm
07:50 AM 44.1°F6.7°C 42.8°F6.0°C 95% 5.8 mph SE9.3 kmh SE 8.0 mph12.9 kmh 30.04 in1017.3 mb - 0.00 in0.0 mm 0.00 in0.0 mm
07:45 AM 44.1°F6.7°C 42.8°F6.0°C 95% 3.4 mph SE5.5 kmh SE 13.8 mph22.2 kmh 30.04 in1017.3 mb - 0.00 in0.0 mm 0.00 in0.0 mm
07:39 AM 44.1°F6.7°C 42.5°F5.8°C 94% 6.9 mph SE11.1 kmh SE 8.0 mph12.9 kmh 30.05 in1017.6 mb - 0.00 in0.0 mm 0.00 in0.0 mm
07:33 AM 44.1°F6.7°C 42.5°F5.8°C 94% 4.6 mph ESE7.4 kmh ESE 8.0 mph12.9 kmh 30.05 in1017.6 mb - 0.00 in0.0 mm 0.00 in0.0 mm
07:28 AM 44.1°F6.7°C 42.4°F5.8°C 94% 5.8 mph SE9.3 kmh SE 10.3 mph16.6 kmh 30.05 in1017.6 mb - 0.00 in0.0 mm 0.00 in0.0 mm
07:22 AM 44.0°F6.7°C 42.4°F5.8°C 94% 6.9 mph ESE11.1 kmh ESE 10.3 mph16.6 kmh 30.05 in1017.6 mb - 0.00 in0.0 mm 0.00 in0.0 mm
07:16 AM 43.9°F6.6°C 42.3°F5.7°C 94% 5.8 mph SE9.3 kmh SE 11.5 mph18.5 kmh 30.05 in1017.6 mb - 0.00 in0.0 mm 0.00 in0.0 mm
07:11 AM 43.8°F6.6°C 42.2°F5.7°C 94% 3.4 mph ESE5.5 kmh ESE 9.2 mph14.8 kmh 30.05 in1017.6 mb - 0.00 in0.0 mm 0.00 in0.0 mm
07:05 AM 43.6°F6.4°C 42.0°F5.6°C 94% 8.0 mph SE12.9 kmh SE 11.5 mph18.5 kmh 30.05 in1017.6 mb - 0.00 in0.0 mm 0.00 in0.0 mm
07:00 AM 43.6°F6.4°C 42.0°F5.6°C 94% 4.6 mph SE7.4 kmh SE 16.1 mph25.9 kmh 30.05 in1017.6 mb - 0.00 in0.0 mm 0.00 in0.0 mm
06:54 AM 43.5°F6.4°C 41.8°F5.4°C 94% 5.8 mph SE9.3 kmh SE 11.5 mph18.5 kmh 30.05 in1017.6 mb - 0.00 in0.0 mm 0.00 in0.0 mm
06:48 AM 43.4°F6.3°C 41.8°F5.4°C 94% 5.8 mph SE9.3 kmh SE 10.3 mph16.6 kmh 30.05 in1017.6 mb - 0.00 in0.0 mm 0.00 in0.0 mm
06:43 AM 43.3°F6.3°C 41.4°F5.2°C 93% 4.6 mph SE7.4 kmh SE 5.8 mph9.3 kmh 30.06 in1017.9 mb - 0.00 in0.0 mm 0.00 in0.0 mm
06:37 AM 43.3°F6.3°C 41.4°F5.2°C 93% 5.8 mph ESE9.3 kmh ESE 10.3 mph16.6 kmh 30.05 in1017.6 mb - 0.00 in0.0 mm 0.00 in0.0 mm
06:31 AM 43.3°F6.3°C 41.4°F5.2°C 93% 6.9 mph SE11.1 kmh SE 11.5 mph18.5 kmh 30.05 in1017.6 mb - 0.00 in0.0 mm 0.00 in0.0 mm
06:26 AM 43.3°F6.3°C 41.4°F5.2°C 93% 6.9 mph E11.1 kmh E 11.5 mph18.5 kmh 30.06 in1017.9 mb - 0.00 in0.0 mm 0.00 in0.0 mm
06:20 AM 43.2°F6.2°C 41.3°F5.2°C 93% 6.9 mph SE11.1 kmh SE 11.5 mph18.5 kmh 30.06 in1017.9 mb - 0.00 in0.0 mm 0.00 in0.0 mm
06:15 AM 43.2°F6.2°C 41.3°F5.2°C 93% 6.9 mph ESE11.1 kmh ESE 11.5 mph18.5 kmh 30.06 in1017.9 mb - 0.00 in0.0 mm 0.00 in0.0 mm
06:09 AM 43.2°F6.2°C 41.0°F5.0°C 92% 6.9 mph ESE11.1 kmh ESE 11.5 mph18.5 kmh 30.07 in1018.3 mb - 0.00 in0.0 mm 0.00 in0.0 mm
06:03 AM 43.1°F6.2°C 40.9°F4.9°C 92% 6.9 mph ESE11.1 kmh ESE 11.5 mph18.5 kmh 30.07 in1018.3 mb - 0.00 in0.0 mm 0.00 in0.0 mm
05:58 AM 43.1°F6.2°C 40.9°F4.9°C 92% 8.0 mph ESE12.9 kmh ESE 11.5 mph18.5 kmh 30.07 in1018.3 mb - 0.00 in0.0 mm 0.00 in0.0 mm
05:52 AM 43.1°F6.2°C 40.9°F4.9°C 92% 4.6 mph ESE7.4 kmh ESE 13.8 mph22.2 kmh 30.07 in1018.3 mb - 0.00 in0.0 mm 0.00 in0.0 mm
05:46 AM 43.1°F6.2°C 40.9°F4.9°C 92% 6.9 mph ESE11.1 kmh ESE 10.3 mph16.6 kmh 30.07 in1018.3 mb - 0.00 in0.0 mm 0.00 in0.0 mm
05:41 AM 43.1°F6.2°C 40.9°F4.9°C 92% 8.0 mph ESE12.9 kmh ESE 14.9 mph24.0 kmh 30.07 in1018.3 mb - 0.00 in0.0 mm 0.00 in0.0 mm
05:35 AM 43.1°F6.2°C 40.9°F4.9°C 92% 5.8 mph SE9.3 kmh SE 11.5 mph18.5 kmh 30.09 in1019.0 mb - 0.00 in0.0 mm 0.00 in0.0 mm
05:30 AM 43.1°F6.2°C 40.9°F4.9°C 92% 5.8 mph SE9.3 kmh SE 11.5 mph18.5 kmh 30.08 in1018.6 mb - 0.00 in0.0 mm 0.00 in0.0 mm
05:24 AM 43.0°F6.1°C 40.6°F4.8°C 91% 6.9 mph ESE11.1 kmh ESE 11.5 mph18.5 kmh 30.08 in1018.6 mb - 0.00 in0.0 mm 0.00 in0.0 mm
05:18 AM 43.0°F6.1°C 40.6°F4.8°C 91% 6.9 mph SE11.1 kmh SE 16.1 mph25.9 kmh 30.08 in1018.6 mb - 0.00 in0.0 mm 0.00 in0.0 mm
05:13 AM 43.0°F6.1°C 40.5°F4.7°C 91% 5.8 mph ESE9.3 kmh ESE 11.5 mph18.5 kmh 30.09 in1019.0 mb - 0.00 in0.0 mm 0.00 in0.0 mm
05:07 AM 42.9°F6.1°C 40.5°F4.7°C 91% 5.8 mph ESE9.3 kmh ESE 9.2 mph14.8 kmh 30.09 in1019.0 mb - 0.00 in0.0 mm 0.00 in0.0 mm
05:01 AM 42.9°F6.1°C 40.4°F4.7°C 91% 4.6 mph E7.4 kmh E 8.0 mph12.9 kmh 30.09 in1019.0 mb - 0.00 in0.0 mm 0.00 in0.0 mm
04:56 AM 42.8°F6.0°C 40.4°F4.7°C 91% 5.8 mph SE9.3 kmh SE 9.2 mph14.8 kmh 30.09 in1019.0 mb - 0.00 in0.0 mm 0.00 in0.0 mm
04:50 AM 42.8°F6.0°C 40.3°F4.6°C 91% 6.9 mph SE11.1 kmh SE 10.3 mph16.6 kmh 30.10 in1019.3 mb - 0.00 in0.0 mm 0.00 in0.0 mm
04:45 AM 42.7°F5.9°C 40.3°F4.6°C 91% 5.8 mph SE9.3 kmh SE 11.5 mph18.5 kmh 30.09 in1019.0 mb - 0.00 in0.0 mm 0.00 in0.0 mm
04:39 AM 42.7°F5.9°C 40.3°F4.6°C 91% 4.6 mph ESE7.4 kmh ESE 11.5 mph18.5 kmh 30.10 in1019.3 mb - 0.00 in0.0 mm 0.00 in0.0 mm
04:33 AM 42.7°F5.9°C 40.3°F4.6°C 91% 6.9 mph SE11.1 kmh SE 11.5 mph18.5 kmh 30.10 in1019.3 mb - 0.00 in0.0 mm 0.00 in0.0 mm
04:22 AM 42.7°F5.9°C 40.3°F4.6°C 91% 4.6 mph SE7.4 kmh SE 11.5 mph18.5 kmh 30.12 in1020.0 mb - 0.00 in0.0 mm 0.00 in0.0 mm
04:16 AM 42.7°F5.9°C 40.2°F4.6°C 91% 4.6 mph SE7.4 kmh SE 5.8 mph9.3 kmh 30.11 in1019.6 mb - 0.00 in0.0 mm 0.00 in0.0 mm
04:11 AM 42.7°F5.9°C 40.3°F4.6°C 91% 5.8 mph SE9.3 kmh SE 11.5 mph18.5 kmh 30.11 in1019.6 mb - 0.00 in0.0 mm 0.00 in0.0 mm
04:05 AM 42.7°F5.9°C 40.3°F4.6°C 91% 6.9 mph SE11.1 kmh SE 14.9 mph24.0 kmh 30.11 in1019.6 mb - 0.00 in0.0 mm 0.00 in0.0 mm
04:00 AM 42.7°F5.9°C 40.3°F4.6°C 91% 6.9 mph E11.1 kmh E 17.3 mph27.8 kmh 30.12 in1020.0 mb - 0.00 in0.0 mm 0.00 in0.0 mm
03:54 AM 42.7°F5.9°C 40.3°F4.6°C 91% 4.6 mph SE7.4 kmh SE 6.9 mph11.1 kmh 30.13 in1020.3 mb - 0.00 in0.0 mm 0.00 in0.0 mm
03:48 AM 42.8°F6.0°C 40.4°F4.7°C 91% 5.8 mph SE9.3 kmh SE 6.9 mph11.1 kmh 30.13 in1020.3 mb - 0.00 in0.0 mm 0.00 in0.0 mm
03:43 AM 42.8°F6.0°C 40.3°F4.6°C 91% 5.8 mph SE9.3 kmh SE 11.5 mph18.5 kmh 30.13 in1020.3 mb - 0.00 in0.0 mm 0.00 in0.0 mm
03:37 AM 42.7°F5.9°C 40.3°F4.6°C 91% 5.8 mph ESE9.3 kmh ESE 8.0 mph12.9 kmh 30.13 in1020.3 mb - 0.00 in0.0 mm 0.00 in0.0 mm
03:31 AM 42.7°F5.9°C 40.3°F4.6°C 91% 6.9 mph SE11.1 kmh SE 11.5 mph18.5 kmh 30.13 in1020.3 mb - 0.00 in0.0 mm 0.00 in0.0 mm
03:26 AM 42.7°F5.9°C 40.2°F4.6°C 91% 5.8 mph SE9.3 kmh SE 14.9 mph24.0 kmh 30.13 in1020.3 mb - 0.00 in0.0 mm 0.00 in0.0 mm
03:20 AM 42.7°F5.9°C 40.2°F4.6°C 91% 4.6 mph ESE7.4 kmh ESE 10.3 mph16.6 kmh 30.13 in1020.3 mb - 0.00 in0.0 mm 0.00 in0.0 mm
03:15 AM 42.7°F5.9°C 40.3°F4.6°C 91% 4.6 mph ESE7.4 kmh ESE 8.0 mph12.9 kmh 30.13 in1020.3 mb - 0.00 in0.0 mm 0.00 in0.0 mm
03:09 AM 42.6°F5.9°C 40.2°F4.6°C 91% 4.6 mph SE7.4 kmh SE 9.2 mph14.8 kmh 30.13 in1020.3 mb - 0.00 in0.0 mm 0.00 in0.0 mm
03:03 AM 42.6°F5.9°C 40.2°F4.6°C 91% 5.8 mph SE9.3 kmh SE 11.5 mph18.5 kmh 30.14 in1020.7 mb - 0.00 in0.0 mm 0.00 in0.0 mm
02:58 AM 42.6°F5.9°C 40.2°F4.6°C 91% 5.8 mph SE9.3 kmh SE 11.5 mph18.5 kmh 30.14 in1020.7 mb - 0.00 in0.0 mm 0.00 in0.0 mm
02:52 AM 42.6°F5.9°C 40.2°F4.6°C 91% 4.6 mph SE7.4 kmh SE 10.3 mph16.6 kmh 30.14 in1020.7 mb - 0.00 in0.0 mm 0.00 in0.0 mm
02:46 AM 42.6°F5.9°C 40.1°F4.5°C 91% 5.8 mph SE9.3 kmh SE 11.5 mph18.5 kmh 30.15 in1021.0 mb - 0.00 in0.0 mm 0.00 in0.0 mm
02:41 AM 42.5°F5.8°C 39.8°F4.3°C 90% 4.6 mph SE7.4 kmh SE 11.5 mph18.5 kmh 30.15 in1021.0 mb - 0.00 in0.0 mm 0.00 in0.0 mm
02:35 AM 42.5°F5.8°C 40.1°F4.5°C 91% 5.8 mph SE9.3 kmh SE 11.5 mph18.5 kmh 30.15 in1021.0 mb - 0.00 in0.0 mm 0.00 in0.0 mm
02:30 AM 42.4°F5.8°C 39.7°F4.3°C 90% 5.8 mph ESE9.3 kmh ESE 10.3 mph16.6 kmh 30.15 in1021.0 mb - 0.00 in0.0 mm 0.00 in0.0 mm
02:24 AM 42.3°F5.7°C 39.6°F4.2°C 90% 4.6 mph SE7.4 kmh SE 8.0 mph12.9 kmh 30.16 in1021.3 mb - 0.00 in0.0 mm 0.00 in0.0 mm
02:18 AM 42.3°F5.7°C 39.6°F4.2°C 90% 5.8 mph SE9.3 kmh SE 9.2 mph14.8 kmh 30.16 in1021.3 mb - 0.00 in0.0 mm 0.00 in0.0 mm
02:13 AM 42.2°F5.7°C 39.8°F4.3°C 91% 5.8 mph SE9.3 kmh SE 9.2 mph14.8 kmh 30.16 in1021.3 mb - 0.00 in0.0 mm 0.00 in0.0 mm
02:07 AM 42.2°F5.7°C 39.7°F4.3°C 91% 4.6 mph SE7.4 kmh SE 8.0 mph12.9 kmh 30.17 in1021.7 mb - 0.00 in0.0 mm 0.00 in0.0 mm
02:01 AM 42.0°F5.6°C 39.5°F4.2°C 91% 4.6 mph SE7.4 kmh SE 9.2 mph14.8 kmh 30.17 in1021.7 mb - 0.00 in0.0 mm 0.00 in0.0 mm
01:56 AM 41.9°F5.5°C 39.5°F4.2°C 91% 3.4 mph SE5.5 kmh SE 9.2 mph14.8 kmh 30.17 in1021.7 mb - 0.00 in0.0 mm 0.00 in0.0 mm
01:50 AM 41.8°F5.4°C 39.3°F4.1°C 91% 5.8 mph SE9.3 kmh SE 10.3 mph16.6 kmh 30.18 in1022.0 mb - 0.00 in0.0 mm 0.00 in0.0 mm
01:45 AM 41.6°F5.3°C 39.2°F4.0°C 91% 5.8 mph SE9.3 kmh SE 9.2 mph14.8 kmh 30.18 in1022.0 mb - 0.00 in0.0 mm 0.00 in0.0 mm
01:39 AM 41.4°F5.2°C 38.9°F3.8°C 91% 4.6 mph ESE7.4 kmh ESE 10.3 mph16.6 kmh 30.18 in1022.0 mb - 0.00 in0.0 mm 0.00 in0.0 mm
01:33 AM 41.3°F5.2°C 38.9°F3.8°C 91% 4.6 mph SE7.4 kmh SE 11.5 mph18.5 kmh 30.18 in1022.0 mb - 0.00 in0.0 mm 0.00 in0.0 mm
01:28 AM 41.3°F5.2°C 38.9°F3.8°C 91% 4.6 mph ESE7.4 kmh ESE 10.3 mph16.6 kmh 30.19 in1022.4 mb - 0.00 in0.0 mm 0.00 in0.0 mm
01:22 AM 41.2°F5.1°C 38.8°F3.8°C 91% 4.6 mph ESE7.4 kmh ESE 9.2 mph14.8 kmh 30.19 in1022.4 mb - 0.00 in0.0 mm 0.00 in0.0 mm
01:05 AM 41.0°F5.0°C 38.3°F3.5°C 90% 2.3 mph ESE3.7 kmh ESE 4.6 mph7.4 kmh 30.20 in1022.7 mb - 0.00 in0.0 mm 0.00 in0.0 mm
01:00 AM 41.0°F5.0°C 38.3°F3.5°C 90% 2.3 mph SE3.7 kmh SE 4.6 mph7.4 kmh 30.20 in1022.7 mb - 0.00 in0.0 mm 0.00 in0.0 mm
12:54 AM 41.1°F5.1°C 38.4°F3.6°C 90% 4.6 mph ESE7.4 kmh ESE 9.2 mph14.8 kmh 30.20 in1022.7 mb - 0.00 in0.0 mm 0.00 in0.0 mm
12:48 AM 41.1°F5.1°C 38.4°F3.6°C 90% 4.6 mph ESE7.4 kmh ESE 9.2 mph14.8 kmh 30.20 in1022.7 mb - 0.00 in0.0 mm 0.00 in0.0 mm
12:43 AM 41.1°F5.1°C 38.7°F3.7°C 91% 2.3 mph SE3.7 kmh SE 5.8 mph9.3 kmh 30.20 in1022.7 mb - 0.00 in0.0 mm 0.00 in0.0 mm
12:37 AM 41.0°F5.0°C 38.9°F3.8°C 92% 4.6 mph SE7.4 kmh SE 8.0 mph12.9 kmh 30.20 in1022.7 mb - 0.00 in0.0 mm 0.00 in0.0 mm
12:31 AM 40.7°F4.8°C 38.6°F3.7°C 92% 3.4 mph SE5.5 kmh SE 3.4 mph5.5 kmh 30.21 in1023.0 mb - 0.00 in0.0 mm 0.00 in0.0 mm
12:26 AM 40.7°F4.8°C 38.6°F3.7°C 92% 3.4 mph SE5.5 kmh SE 11.5 mph18.5 kmh 30.21 in1023.0 mb - 0.00 in0.0 mm 0.00 in0.0 mm
12:20 AM 40.4°F4.7°C 38.5°F3.6°C 93% 3.4 mph SE5.5 kmh SE 6.9 mph11.1 kmh 30.21 in1023.0 mb - 0.00 in0.0 mm 0.00 in0.0 mm
12:15 AM 40.3°F4.6°C 38.5°F3.6°C 93% 3.4 mph SE5.5 kmh SE 9.2 mph14.8 kmh 30.21 in1023.0 mb - 0.00 in0.0 mm 0.00 in0.0 mm
12:09 AM 40.3°F4.6°C 38.5°F3.6°C 93% 3.4 mph SE5.5 kmh SE 4.6 mph7.4 kmh 30.22 in1023.4 mb - 0.00 in0.0 mm 0.00 in0.0 mm
12:03 AM 40.2°F4.6°C 38.3°F3.5°C 93% 3.4 mph SE5.5 kmh SE 3.4 mph5.5 kmh 30.22 in1023.4 mb - 0.00 in0.0 mm 0.00 in0.0 mm